sensor_id;sensor_type;location;lat;lon;timestamp;temperature;humidity
27633;DHT22;15046;50.930;13.334;2023-02-28T00:00:17;-0.90;99.90
27633;DHT22;15046;50.930;13.334;2023-02-28T00:02:44;-0.80;99.90
27633;DHT22;15046;50.930;13.334;2023-02-28T00:05:13;-0.70;99.90
27633;DHT22;15046;50.930;13.334;2023-02-28T00:07:39;-0.70;99.90
27633;DHT22;15046;50.930;13.334;2023-02-28T00:10:07;-0.70;99.90
27633;DHT22;15046;50.930;13.334;2023-02-28T00:12:35;-0.70;99.90
27633;DHT22;15046;50.930;13.334;2023-02-28T00:15:02;-0.60;99.90
27633;DHT22;15046;50.930;13.334;2023-02-28T00:17:30;-0.60;99.90
27633;DHT22;15046;50.930;13.334;2023-02-28T00:19:56;-0.60;99.90
27633;DHT22;15046;50.930;13.334;2023-02-28T00:22:22;-0.60;99.90
27633;DHT22;15046;50.930;13.334;2023-02-28T00:24:48;-0.60;99.90
27633;DHT22;15046;50.930;13.334;2023-02-28T00:27:14;-0.60;99.90
27633;DHT22;15046;50.930;13.334;2023-02-28T00:29:40;-0.60;99.90
27633;DHT22;15046;50.930;13.334;2023-02-28T00:32:06;-0.60;99.90
27633;DHT22;15046;50.930;13.334;2023-02-28T00:34:32;-0.60;99.90
27633;DHT22;15046;50.930;13.334;2023-02-28T00:37:07;-0.60;99.90
27633;DHT22;15046;50.930;13.334;2023-02-28T00:39:35;-0.60;99.90
27633;DHT22;15046;50.930;13.334;2023-02-28T00:42:02;-0.60;99.90
27633;DHT22;15046;50.930;13.334;2023-02-28T00:44:29;-0.60;99.90
27633;DHT22;15046;50.930;13.334;2023-02-28T00:46:55;-0.60;99.90
27633;DHT22;15046;50.930;13.334;2023-02-28T00:49:22;-0.60;99.90
27633;DHT22;15046;50.930;13.334;2023-02-28T00:51:48;-0.60;99.90
27633;DHT22;15046;50.930;13.334;2023-02-28T00:54:15;-0.60;99.90
27633;DHT22;15046;50.930;13.334;2023-02-28T00:56:40;-0.60;99.90
27633;DHT22;15046;50.930;13.334;2023-02-28T00:59:06;-0.60;99.90
27633;DHT22;15046;50.930;13.334;2023-02-28T01:01:32;-0.60;99.90
27633;DHT22;15046;50.930;13.334;2023-02-28T01:03:58;-0.60;99.90
27633;DHT22;15046;50.930;13.334;2023-02-28T01:06:24;-0.60;99.90
27633;DHT22;15046;50.930;13.334;2023-02-28T01:08:50;-0.60;99.90
27633;DHT22;15046;50.930;13.334;2023-02-28T01:11:17;-0.60;99.90
27633;DHT22;15046;50.930;13.334;2023-02-28T01:13:43;-0.60;99.90
27633;DHT22;15046;50.930;13.334;2023-02-28T01:16:09;-0.60;99.90
27633;DHT22;15046;50.930;13.334;2023-02-28T01:18:36;-0.60;99.90
27633;DHT22;15046;50.930;13.334;2023-02-28T01:21:13;-0.60;99.90
27633;DHT22;15046;50.930;13.334;2023-02-28T01:23:39;-0.60;99.90
27633;DHT22;15046;50.930;13.334;2023-02-28T01:26:10;-0.60;99.90
27633;DHT22;15046;50.930;13.334;2023-02-28T01:28:37;-0.60;99.90
27633;DHT22;15046;50.930;13.334;2023-02-28T01:31:03;-0.70;99.90
27633;DHT22;15046;50.930;13.334;2023-02-28T01:33:29;-0.70;99.90
27633;DHT22;15046;50.930;13.334;2023-02-28T01:36:16;-0.70;99.90
27633;DHT22;15046;50.930;13.334;2023-02-28T01:38:42;-0.70;99.90
27633;DHT22;15046;50.930;13.334;2023-02-28T01:41:24;-0.80;99.90
27633;DHT22;15046;50.930;13.334;2023-02-28T01:46:16;-0.90;99.90
27633;DHT22;15046;50.930;13.334;2023-02-28T01:48:53;-0.90;99.90
27633;DHT22;15046;50.930;13.334;2023-02-28T01:54:00;-1.00;99.90
27633;DHT22;15046;50.930;13.334;2023-02-28T01:56:30;-1.00;99.90
27633;DHT22;15046;50.930;13.334;2023-02-28T01:58:58;-1.00;99.90
27633;DHT22;15046;50.930;13.334;2023-02-28T02:01:26;-1.00;99.90
27633;DHT22;15046;50.930;13.334;2023-02-28T02:04:01;-1.00;99.90
27633;DHT22;15046;50.930;13.334;2023-02-28T02:06:50;-1.10;99.90
27633;DHT22;15046;50.930;13.334;2023-02-28T02:09:15;-1.10;99.90
27633;DHT22;15046;50.930;13.334;2023-02-28T02:11:43;-1.10;99.90
27633;DHT22;15046;50.930;13.334;2023-02-28T02:22:50;-1.20;99.90
27633;DHT22;15046;50.930;13.334;2023-02-28T02:31:06;-1.20;99.90
27633;DHT22;15046;50.930;13.334;2023-02-28T02:37:02;-1.30;99.90
27633;DHT22;15046;50.930;13.334;2023-02-28T02:39:19;-1.20;99.90
27633;DHT22;15046;50.930;13.334;2023-02-28T02:41:54;-1.20;99.90
27633;DHT22;15046;50.930;13.334;2023-02-28T02:44:31;-1.10;99.90
27633;DHT22;15046;50.930;13.334;2023-02-28T02:47:06;-1.10;99.90
27633;DHT22;15046;50.930;13.334;2023-02-28T02:49:36;-1.10;99.90
27633;DHT22;15046;50.930;13.334;2023-02-28T02:52:08;-1.00;99.90
27633;DHT22;15046;50.930;13.334;2023-02-28T02:54:43;-1.10;99.90
27633;DHT22;15046;50.930;13.334;2023-02-28T02:57:14;-1.00;99.90
27633;DHT22;15046;50.930;13.334;2023-02-28T02:59:43;-1.00;99.90
27633;DHT22;15046;50.930;13.334;2023-02-28T03:02:12;-1.00;99.90
27633;DHT22;15046;50.930;13.334;2023-02-28T03:04:46;-1.00;99.90
27633;DHT22;15046;50.930;13.334;2023-02-28T03:07:14;-1.00;99.90
27633;DHT22;15046;50.930;13.334;2023-02-28T03:09:40;-1.00;99.90
27633;DHT22;15046;50.930;13.334;2023-02-28T03:12:11;-1.00;99.90
27633;DHT22;15046;50.930;13.334;2023-02-28T03:14:51;-1.10;99.90
27633;DHT22;15046;50.930;13.334;2023-02-28T03:20:13;-1.10;99.90
27633;DHT22;15046;50.930;13.334;2023-02-28T03:25:35;-1.20;99.90
27633;DHT22;15046;50.930;13.334;2023-02-28T03:30:35;-1.10;99.90
27633;DHT22;15046;50.930;13.334;2023-02-28T03:33:21;-1.10;99.90
27633;DHT22;15046;50.930;13.334;2023-02-28T03:36:06;-1.10;99.90
27633;DHT22;15046;50.930;13.334;2023-02-28T03:38:47;-1.10;99.90
27633;DHT22;15046;50.930;13.334;2023-02-28T03:41:21;-1.10;99.90
27633;DHT22;15046;50.930;13.334;2023-02-28T03:43:58;-1.10;99.90
27633;DHT22;15046;50.930;13.334;2023-02-28T03:46:28;-1.20;99.90
27633;DHT22;15046;50.930;13.334;2023-02-28T03:49:02;-1.20;99.90
27633;DHT22;15046;50.930;13.334;2023-02-28T03:51:29;-1.10;99.90
27633;DHT22;15046;50.930;13.334;2023-02-28T03:54:05;-1.20;99.90
27633;DHT22;15046;50.930;13.334;2023-02-28T03:56:38;-1.20;99.90
27633;DHT22;15046;50.930;13.334;2023-02-28T03:59:16;-1.20;99.90
27633;DHT22;15046;50.930;13.334;2023-02-28T04:01:45;-1.20;99.90
27633;DHT22;15046;50.930;13.334;2023-02-28T04:04:13;-1.20;99.90
27633;DHT22;15046;50.930;13.334;2023-02-28T04:06:40;-1.20;99.90
27633;DHT22;15046;50.930;13.334;2023-02-28T04:09:08;-1.20;99.90
27633;DHT22;15046;50.930;13.334;2023-02-28T04:11:37;-1.20;99.90
27633;DHT22;15046;50.930;13.334;2023-02-28T04:14:05;-1.20;99.90
27633;DHT22;15046;50.930;13.334;2023-02-28T04:16:32;-1.20;99.90
27633;DHT22;15046;50.930;13.334;2023-02-28T04:18:59;-1.30;99.90
27633;DHT22;15046;50.930;13.334;2023-02-28T04:21:37;-1.30;99.90
27633;DHT22;15046;50.930;13.334;2023-02-28T04:24:04;-1.30;99.90
27633;DHT22;15046;50.930;13.334;2023-02-28T04:26:34;-1.40;99.90
27633;DHT22;15046;50.930;13.334;2023-02-28T04:29:02;-1.40;99.90
27633;DHT22;15046;50.930;13.334;2023-02-28T04:31:28;-1.40;99.90
27633;DHT22;15046;50.930;13.334;2023-02-28T04:33:54;-1.40;99.90
27633;DHT22;15046;50.930;13.334;2023-02-28T04:36:20;-1.50;99.90
27633;DHT22;15046;50.930;13.334;2023-02-28T04:38:46;-1.50;99.90
27633;DHT22;15046;50.930;13.334;2023-02-28T04:41:13;-1.40;99.90
27633;DHT22;15046;50.930;13.334;2023-02-28T04:43:39;-1.50;99.90
27633;DHT22;15046;50.930;13.334;2023-02-28T04:46:05;-1.50;99.90
27633;DHT22;15046;50.930;13.334;2023-02-28T04:48:33;-1.50;99.90
27633;DHT22;15046;50.930;13.334;2023-02-28T04:51:05;-1.50;99.90
27633;DHT22;15046;50.930;13.334;2023-02-28T04:53:31;-1.50;99.90
27633;DHT22;15046;50.930;13.334;2023-02-28T04:55:58;-1.50;99.90
27633;DHT22;15046;50.930;13.334;2023-02-28T04:58:25;-1.50;99.90
27633;DHT22;15046;50.930;13.334;2023-02-28T05:00:54;-1.50;99.90
27633;DHT22;15046;50.930;13.334;2023-02-28T05:03:26;-1.50;99.90
27633;DHT22;15046;50.930;13.334;2023-02-28T05:05:52;-1.50;99.90
27633;DHT22;15046;50.930;13.334;2023-02-28T05:08:17;-1.60;99.90
27633;DHT22;15046;50.930;13.334;2023-02-28T05:10:43;-1.60;99.90
27633;DHT22;15046;50.930;13.334;2023-02-28T05:13:12;-1.60;99.90
27633;DHT22;15046;50.930;13.334;2023-02-28T05:15:38;-1.60;99.90
27633;DHT22;15046;50.930;13.334;2023-02-28T05:18:03;-1.60;99.90
27633;DHT22;15046;50.930;13.334;2023-02-28T05:20:29;-1.60;99.90
27633;DHT22;15046;50.930;13.334;2023-02-28T05:23:02;-1.60;99.90
27633;DHT22;15046;50.930;13.334;2023-02-28T05:25:29;-1.60;99.90
27633;DHT22;15046;50.930;13.334;2023-02-28T05:27:55;-1.70;99.90
27633;DHT22;15046;50.930;13.334;2023-02-28T05:30:20;-1.70;99.90
27633;DHT22;15046;50.930;13.334;2023-02-28T05:32:50;-1.80;99.90
27633;DHT22;15046;50.930;13.334;2023-02-28T05:35:16;-1.90;99.90
27633;DHT22;15046;50.930;13.334;2023-02-28T05:37:42;-2.00;99.90
27633;DHT22;15046;50.930;13.334;2023-02-28T05:40:08;-2.10;99.90
27633;DHT22;15046;50.930;13.334;2023-02-28T05:42:36;-2.20;99.90
27633;DHT22;15046;50.930;13.334;2023-02-28T05:45:03;-2.30;99.90
27633;DHT22;15046;50.930;13.334;2023-02-28T05:47:29;-2.30;99.90
27633;DHT22;15046;50.930;13.334;2023-02-28T05:49:55;-2.40;99.90
27633;DHT22;15046;50.930;13.334;2023-02-28T05:52:20;-2.50;99.90
27633;DHT22;15046;50.930;13.334;2023-02-28T05:54:47;-2.60;99.90
27633;DHT22;15046;50.930;13.334;2023-02-28T05:57:13;-2.60;99.90
27633;DHT22;15046;50.930;13.334;2023-02-28T05:59:39;-2.60;99.90
27633;DHT22;15046;50.930;13.334;2023-02-28T06:02:08;-2.70;99.90
27633;DHT22;15046;50.930;13.334;2023-02-28T06:04:36;-2.80;99.90
27633;DHT22;15046;50.930;13.334;2023-02-28T06:07:02;-2.80;99.90
27633;DHT22;15046;50.930;13.334;2023-02-28T06:09:28;-2.90;99.90
27633;DHT22;15046;50.930;13.334;2023-02-28T06:11:56;-2.90;99.90
27633;DHT22;15046;50.930;13.334;2023-02-28T06:14:22;-2.90;99.90
27633;DHT22;15046;50.930;13.334;2023-02-28T06:16:48;-2.80;99.90
27633;DHT22;15046;50.930;13.334;2023-02-28T06:19:14;-2.80;99.90
27633;DHT22;15046;50.930;13.334;2023-02-28T06:21:41;-2.80;99.90
27633;DHT22;15046;50.930;13.334;2023-02-28T06:24:07;-2.80;99.90
27633;DHT22;15046;50.930;13.334;2023-02-28T06:26:33;-2.80;99.90
27633;DHT22;15046;50.930;13.334;2023-02-28T06:28:59;-2.80;99.90
27633;DHT22;15046;50.930;13.334;2023-02-28T06:31:26;-2.70;99.90
27633;DHT22;15046;50.930;13.334;2023-02-28T06:33:54;-2.70;99.90
27633;DHT22;15046;50.930;13.334;2023-02-28T06:36:20;-2.70;99.90
27633;DHT22;15046;50.930;13.334;2023-02-28T06:38:46;-2.60;99.90
27633;DHT22;15046;50.930;13.334;2023-02-28T06:41:17;-2.60;99.90
27633;DHT22;15046;50.930;13.334;2023-02-28T06:43:43;-2.60;99.90
27633;DHT22;15046;50.930;13.334;2023-02-28T06:46:12;-2.50;99.90
27633;DHT22;15046;50.930;13.334;2023-02-28T06:48:39;-2.50;99.90
27633;DHT22;15046;50.930;13.334;2023-02-28T06:51:16;-2.50;99.90
27633;DHT22;15046;50.930;13.334;2023-02-28T06:53:42;-2.40;99.90
27633;DHT22;15046;50.930;13.334;2023-02-28T06:56:11;-2.40;99.90
27633;DHT22;15046;50.930;13.334;2023-02-28T06:58:37;-2.30;99.90
27633;DHT22;15046;50.930;13.334;2023-02-28T07:01:05;-2.30;99.90
27633;DHT22;15046;50.930;13.334;2023-02-28T07:03:31;-2.20;99.90
27633;DHT22;15046;50.930;13.334;2023-02-28T07:05:57;-2.20;99.90
27633;DHT22;15046;50.930;13.334;2023-02-28T07:08:24;-2.10;99.90
27633;DHT22;15046;50.930;13.334;2023-02-28T07:10:54;-2.00;99.90
27633;DHT22;15046;50.930;13.334;2023-02-28T07:13:21;-1.90;99.90
27633;DHT22;15046;50.930;13.334;2023-02-28T07:16:00;-1.90;99.90
27633;DHT22;15046;50.930;13.334;2023-02-28T07:18:26;-1.80;99.90
27633;DHT22;15046;50.930;13.334;2023-02-28T07:20:53;-1.80;99.90
27633;DHT22;15046;50.930;13.334;2023-02-28T07:23:20;-1.70;99.90
27633;DHT22;15046;50.930;13.334;2023-02-28T07:25:45;-1.70;99.90
27633;DHT22;15046;50.930;13.334;2023-02-28T07:28:12;-1.60;99.90
27633;DHT22;15046;50.930;13.334;2023-02-28T07:30:38;-1.60;99.90
27633;DHT22;15046;50.930;13.334;2023-02-28T07:33:04;-1.50;99.90
27633;DHT22;15046;50.930;13.334;2023-02-28T07:35:30;-1.50;99.90
27633;DHT22;15046;50.930;13.334;2023-02-28T07:38:00;-1.40;99.90
27633;DHT22;15046;50.930;13.334;2023-02-28T07:40:26;-1.40;99.90
27633;DHT22;15046;50.930;13.334;2023-02-28T07:42:52;-1.30;99.90
27633;DHT22;15046;50.930;13.334;2023-02-28T07:45:18;-1.20;99.90
27633;DHT22;15046;50.930;13.334;2023-02-28T07:47:45;-1.20;99.90
27633;DHT22;15046;50.930;13.334;2023-02-28T07:50:13;-1.10;99.90
27633;DHT22;15046;50.930;13.334;2023-02-28T07:52:40;-1.10;99.90
27633;DHT22;15046;50.930;13.334;2023-02-28T07:55:07;-1.10;99.90
27633;DHT22;15046;50.930;13.334;2023-02-28T07:57:33;-1.00;99.90
27633;DHT22;15046;50.930;13.334;2023-02-28T07:59:59;-0.90;99.90
27633;DHT22;15046;50.930;13.334;2023-02-28T08:02:25;-0.80;99.90
27633;DHT22;15046;50.930;13.334;2023-02-28T08:04:50;-0.70;99.90
27633;DHT22;15046;50.930;13.334;2023-02-28T08:07:17;-0.60;99.90
27633;DHT22;15046;50.930;13.334;2023-02-28T08:09:44;-0.40;99.90
27633;DHT22;15046;50.930;13.334;2023-02-28T08:12:11;-0.10;99.90
27633;DHT22;15046;50.930;13.334;2023-02-28T08:14:37;0.20;99.90
27633;DHT22;15046;50.930;13.334;2023-02-28T08:17:04;0.50;99.90
27633;DHT22;15046;50.930;13.334;2023-02-28T08:19:30;0.70;99.90
27633;DHT22;15046;50.930;13.334;2023-02-28T08:21:57;0.90;99.90
27633;DHT22;15046;50.930;13.334;2023-02-28T08:24:22;1.10;99.90
27633;DHT22;15046;50.930;13.334;2023-02-28T08:26:48;1.40;99.90
27633;DHT22;15046;50.930;13.334;2023-02-28T08:29:14;1.60;99.90
27633;DHT22;15046;50.930;13.334;2023-02-28T08:31:41;1.90;99.90
27633;DHT22;15046;50.930;13.334;2023-02-28T08:34:12;2.20;99.90
27633;DHT22;15046;50.930;13.334;2023-02-28T08:36:39;2.20;99.90
27633;DHT22;15046;50.930;13.334;2023-02-28T08:39:06;2.00;99.90
27633;DHT22;15046;50.930;13.334;2023-02-28T08:41:33;1.80;99.90
27633;DHT22;15046;50.930;13.334;2023-02-28T08:43:59;1.70;99.90
27633;DHT22;15046;50.930;13.334;2023-02-28T08:46:25;1.60;99.90
27633;DHT22;15046;50.930;13.334;2023-02-28T08:48:55;1.60;99.90
27633;DHT22;15046;50.930;13.334;2023-02-28T08:51:24;1.50;99.90
27633;DHT22;15046;50.930;13.334;2023-02-28T08:53:58;1.50;99.90
27633;DHT22;15046;50.930;13.334;2023-02-28T08:56:26;1.50;99.90
27633;DHT22;15046;50.930;13.334;2023-02-28T08:58:53;1.50;99.90
27633;DHT22;15046;50.930;13.334;2023-02-28T09:01:26;1.50;99.90
27633;DHT22;15046;50.930;13.334;2023-02-28T09:03:53;1.60;99.90
27633;DHT22;15046;50.930;13.334;2023-02-28T09:06:21;1.70;99.90
27633;DHT22;15046;50.930;13.334;2023-02-28T09:08:50;1.80;99.90
27633;DHT22;15046;50.930;13.334;2023-02-28T09:11:16;1.80;99.90
27633;DHT22;15046;50.930;13.334;2023-02-28T09:13:42;1.90;99.90
27633;DHT22;15046;50.930;13.334;2023-02-28T09:16:11;2.00;99.90
27633;DHT22;15046;50.930;13.334;2023-02-28T09:18:38;2.10;99.90
27633;DHT22;15046;50.930;13.334;2023-02-28T09:21:11;2.10;99.90
27633;DHT22;15046;50.930;13.334;2023-02-28T09:23:40;2.20;99.90
27633;DHT22;15046;50.930;13.334;2023-02-28T09:26:06;2.20;99.90
27633;DHT22;15046;50.930;13.334;2023-02-28T09:28:32;2.20;99.90
27633;DHT22;15046;50.930;13.334;2023-02-28T09:30:58;2.30;99.90
27633;DHT22;15046;50.930;13.334;2023-02-28T09:33:25;2.40;99.90
27633;DHT22;15046;50.930;13.334;2023-02-28T09:35:58;2.50;99.90
27633;DHT22;15046;50.930;13.334;2023-02-28T09:38:24;2.60;99.90
27633;DHT22;15046;50.930;13.334;2023-02-28T09:43:19;2.60;99.90
27633;DHT22;15046;50.930;13.334;2023-02-28T09:48:45;2.80;99.90
27633;DHT22;15046;50.930;13.334;2023-02-28T09:51:45;2.90;99.90
27633;DHT22;15046;50.930;13.334;2023-02-28T09:54:22;3.20;99.90
27633;DHT22;15046;50.930;13.334;2023-02-28T09:56:53;4.30;99.90
27633;DHT22;15046;50.930;13.334;2023-02-28T10:05:08;11.40;97.40
27633;DHT22;15046;50.930;13.334;2023-02-28T10:07:46;12.50;92.30
27633;DHT22;15046;50.930;13.334;2023-02-28T10:11:07;13.60;88.30
27633;DHT22;15046;50.930;13.334;2023-02-28T10:13:44;14.70;82.00
27633;DHT22;15046;50.930;13.334;2023-02-28T10:16:15;14.70;78.20
27633;DHT22;15046;50.930;13.334;2023-02-28T10:18:52;13.40;76.00
27633;DHT22;15046;50.930;13.334;2023-02-28T10:21:32;11.30;75.90
27633;DHT22;15046;50.930;13.334;2023-02-28T10:24:11;9.60;78.80
27633;DHT22;15046;50.930;13.334;2023-02-28T10:26:39;8.60;81.70
27633;DHT22;15046;50.930;13.334;2023-02-28T10:29:08;8.40;81.40
27633;DHT22;15046;50.930;13.334;2023-02-28T10:31:34;8.00;82.40
27633;DHT22;15046;50.930;13.334;2023-02-28T10:34:00;9.10;83.60
27633;DHT22;15046;50.930;13.334;2023-02-28T10:36:27;10.50;80.90
27633;DHT22;15046;50.930;13.334;2023-02-28T10:38:53;11.40;79.10
27633;DHT22;15046;50.930;13.334;2023-02-28T10:41:30;12.10;77.40
27633;DHT22;15046;50.930;13.334;2023-02-28T10:44:21;12.60;76.60
27633;DHT22;15046;50.930;13.334;2023-02-28T10:46:47;14.00;74.00
27633;DHT22;15046;50.930;13.334;2023-02-28T10:49:25;14.80;72.40
27633;DHT22;15046;50.930;13.334;2023-02-28T10:51:56;14.20;70.60
27633;DHT22;15046;50.930;13.334;2023-02-28T10:54:27;14.50;70.90
27633;DHT22;15046;50.930;13.334;2023-02-28T10:57:30;15.10;70.00
27633;DHT22;15046;50.930;13.334;2023-02-28T11:00:20;15.10;67.70
27633;DHT22;15046;50.930;13.334;2023-02-28T11:02:47;15.50;66.90
27633;DHT22;15046;50.930;13.334;2023-02-28T11:05:31;14.50;65.90
27633;DHT22;15046;50.930;13.334;2023-02-28T11:08:10;12.80;66.10
27633;DHT22;15046;50.930;13.334;2023-02-28T11:10:37;11.50;67.80
27633;DHT22;15046;50.930;13.334;2023-02-28T11:13:03;11.60;69.50
27633;DHT22;15046;50.930;13.334;2023-02-28T11:15:32;12.00;68.90
27633;DHT22;15046;50.930;13.334;2023-02-28T11:20:38;14.00;67.60
27633;DHT22;15046;50.930;13.334;2023-02-28T11:23:12;15.40;66.70
27633;DHT22;15046;50.930;13.334;2023-02-28T11:25:39;16.40;63.60
27633;DHT22;15046;50.930;13.334;2023-02-28T11:28:08;16.60;63.10
27633;DHT22;15046;50.930;13.334;2023-02-28T11:31:03;17.00;61.60
27633;DHT22;15046;50.930;13.334;2023-02-28T11:33:40;17.50;60.00
27633;DHT22;15046;50.930;13.334;2023-02-28T11:36:17;17.40;58.30
27633;DHT22;15046;50.930;13.334;2023-02-28T11:38:43;17.30;58.50
27633;DHT22;15046;50.930;13.334;2023-02-28T11:49:20;17.30;56.90
27633;DHT22;15046;50.930;13.334;2023-02-28T11:51:56;16.80;56.10
27633;DHT22;15046;50.930;13.334;2023-02-28T11:54:42;16.40;57.40
27633;DHT22;15046;50.930;13.334;2023-02-28T12:00:01;17.60;56.10
27633;DHT22;15046;50.930;13.334;2023-02-28T12:02:57;17.50;55.80
27633;DHT22;15046;50.930;13.334;2023-02-28T12:10:51;17.10;55.30
27633;DHT22;15046;50.930;13.334;2023-02-28T12:13:23;16.70;54.80
27633;DHT22;15046;50.930;13.334;2023-02-28T12:16:31;16.60;55.20
27633;DHT22;15046;50.930;13.334;2023-02-28T12:26:39;18.30;54.50
27633;DHT22;15046;50.930;13.334;2023-02-28T12:29:23;19.00;53.60
27633;DHT22;15046;50.930;13.334;2023-02-28T12:31:58;19.50;53.40
27633;DHT22;15046;50.930;13.334;2023-02-28T12:34:33;19.70;53.00
27633;DHT22;15046;50.930;13.334;2023-02-28T12:37:04;19.60;52.50
27633;DHT22;15046;50.930;13.334;2023-02-28T12:39:44;19.70;52.40
27633;DHT22;15046;50.930;13.334;2023-02-28T12:42:13;20.00;52.20
27633;DHT22;15046;50.930;13.334;2023-02-28T12:44:50;20.30;52.20
27633;DHT22;15046;50.930;13.334;2023-02-28T12:47:18;20.50;51.50
27633;DHT22;15046;50.930;13.334;2023-02-28T12:49:45;20.60;51.90
27633;DHT22;15046;50.930;13.334;2023-02-28T12:52:17;20.80;51.50
27633;DHT22;15046;50.930;13.334;2023-02-28T12:55:13;20.70;51.00
27633;DHT22;15046;50.930;13.334;2023-02-28T12:57:52;20.80;50.40
27633;DHT22;15046;50.930;13.334;2023-02-28T13:00:21;20.90;50.50
27633;DHT22;15046;50.930;13.334;2023-02-28T13:11:43;20.50;50.90
27633;DHT22;15046;50.930;13.334;2023-02-28T13:19:44;20.30;50.60
27633;DHT22;15046;50.930;13.334;2023-02-28T13:22:40;20.30;49.50
27633;DHT22;15046;50.930;13.334;2023-02-28T13:27:51;20.20;49.60
27633;DHT22;15046;50.930;13.334;2023-02-28T13:39:03;20.40;50.40
27633;DHT22;15046;50.930;13.334;2023-02-28T13:44:03;20.10;50.20
27633;DHT22;15046;50.930;13.334;2023-02-28T13:46:30;20.20;49.90
27633;DHT22;15046;50.930;13.334;2023-02-28T13:48:56;20.20;49.70
27633;DHT22;15046;50.930;13.334;2023-02-28T13:51:45;20.20;49.30
27633;DHT22;15046;50.930;13.334;2023-02-28T13:59:36;20.10;49.00
27633;DHT22;15046;50.930;13.334;2023-02-28T14:02:40;19.90;48.50
27633;DHT22;15046;50.930;13.334;2023-02-28T14:07:38;19.60;49.90
27633;DHT22;15046;50.930;13.334;2023-02-28T14:10:08;19.40;49.30
27633;DHT22;15046;50.930;13.334;2023-02-28T14:12:55;19.40;49.60
27633;DHT22;15046;50.930;13.334;2023-02-28T14:18:28;19.30;48.60
27633;DHT22;15046;50.930;13.334;2023-02-28T14:20:58;18.80;49.00
27633;DHT22;15046;50.930;13.334;2023-02-28T14:26:52;18.50;49.20
27633;DHT22;15046;50.930;13.334;2023-02-28T14:35:17;18.40;49.80
27633;DHT22;15046;50.930;13.334;2023-02-28T14:37:45;18.40;50.80
27633;DHT22;15046;50.930;13.334;2023-02-28T14:40:20;18.30;50.70
27633;DHT22;15046;50.930;13.334;2023-02-28T14:43:02;18.10;50.10
27633;DHT22;15046;50.930;13.334;2023-02-28T14:45:30;17.90;50.00
27633;DHT22;15046;50.930;13.334;2023-02-28T14:47:58;17.90;50.80
27633;DHT22;15046;50.930;13.334;2023-02-28T14:50:31;17.70;51.00
27633;DHT22;15046;50.930;13.334;2023-02-28T14:52:58;17.60;50.90
27633;DHT22;15046;50.930;13.334;2023-02-28T14:55:45;17.50;51.30
27633;DHT22;15046;50.930;13.334;2023-02-28T14:58:32;17.40;50.10
27633;DHT22;15046;50.930;13.334;2023-02-28T15:01:02;17.10;50.40
27633;DHT22;15046;50.930;13.334;2023-02-28T15:05:57;16.60;51.70
27633;DHT22;15046;50.930;13.334;2023-02-28T15:08:24;16.30;51.60
27633;DHT22;15046;50.930;13.334;2023-02-28T15:11:07;15.30;51.80
27633;DHT22;15046;50.930;13.334;2023-02-28T15:13:53;14.10;52.60
27633;DHT22;15046;50.930;13.334;2023-02-28T15:16:25;12.90;54.00
27633;DHT22;15046;50.930;13.334;2023-02-28T15:21:44;11.30;56.50
27633;DHT22;15046;50.930;13.334;2023-02-28T15:24:31;10.60;57.70
27633;DHT22;15046;50.930;13.334;2023-02-28T15:27:04;10.00;58.20
27633;DHT22;15046;50.930;13.334;2023-02-28T15:29:44;9.70;59.10
27633;DHT22;15046;50.930;13.334;2023-02-28T15:34:55;8.90;59.90
27633;DHT22;15046;50.930;13.334;2023-02-28T15:37:39;8.60;60.90
27633;DHT22;15046;50.930;13.334;2023-02-28T15:45:38;7.60;62.80
27633;DHT22;15046;50.930;13.334;2023-02-28T15:51:02;7.20;64.00
27633;DHT22;15046;50.930;13.334;2023-02-28T15:53:36;7.10;64.60
27633;DHT22;15046;50.930;13.334;2023-02-28T15:56:05;7.00;65.00
27633;DHT22;15046;50.930;13.334;2023-02-28T15:58:33;6.80;65.30
27633;DHT22;15046;50.930;13.334;2023-02-28T16:01:24;6.70;65.90
27633;DHT22;15046;50.930;13.334;2023-02-28T16:03:53;6.50;66.20
27633;DHT22;15046;50.930;13.334;2023-02-28T16:08:51;6.30;66.90
27633;DHT22;15046;50.930;13.334;2023-02-28T16:11:17;6.20;67.30
27633;DHT22;15046;50.930;13.334;2023-02-28T16:13:44;6.10;67.60
27633;DHT22;15046;50.930;13.334;2023-02-28T16:16:15;6.00;67.80
27633;DHT22;15046;50.930;13.334;2023-02-28T16:18:42;5.90;68.00
27633;DHT22;15046;50.930;13.334;2023-02-28T16:21:08;5.80;68.20
27633;DHT22;15046;50.930;13.334;2023-02-28T16:23:34;5.70;68.40
27633;DHT22;15046;50.930;13.334;2023-02-28T16:26:00;5.60;68.60
27633;DHT22;15046;50.930;13.334;2023-02-28T16:28:32;5.50;69.10
27633;DHT22;15046;50.930;13.334;2023-02-28T16:31:02;5.30;69.30
27633;DHT22;15046;50.930;13.334;2023-02-28T16:33:33;5.30;70.20
27633;DHT22;15046;50.930;13.334;2023-02-28T16:36:00;5.10;69.70
27633;DHT22;15046;50.930;13.334;2023-02-28T16:38:26;5.10;70.00
27633;DHT22;15046;50.930;13.334;2023-02-28T16:40:53;5.00;70.40
27633;DHT22;15046;50.930;13.334;2023-02-28T16:43:24;4.90;70.60
27633;DHT22;15046;50.930;13.334;2023-02-28T16:45:55;4.80;70.80
27633;DHT22;15046;50.930;13.334;2023-02-28T16:48:22;4.70;71.00
27633;DHT22;15046;50.930;13.334;2023-02-28T16:50:48;4.70;71.30
27633;DHT22;15046;50.930;13.334;2023-02-28T16:53:13;4.60;71.60
27633;DHT22;15046;50.930;13.334;2023-02-28T16:55:39;4.50;71.80
27633;DHT22;15046;50.930;13.334;2023-02-28T16:58:05;4.40;71.80
27633;DHT22;15046;50.930;13.334;2023-02-28T17:00:32;4.30;71.90
27633;DHT22;15046;50.930;13.334;2023-02-28T17:02:58;4.20;72.10
27633;DHT22;15046;50.930;13.334;2023-02-28T17:05:25;4.20;72.20
27633;DHT22;15046;50.930;13.334;2023-02-28T17:07:51;4.10;72.40
27633;DHT22;15046;50.930;13.334;2023-02-28T17:10:21;4.00;72.50
27633;DHT22;15046;50.930;13.334;2023-02-28T17:12:47;3.90;73.40
27633;DHT22;15046;50.930;13.334;2023-02-28T17:15:15;3.80;72.90
27633;DHT22;15046;50.930;13.334;2023-02-28T17:17:42;3.70;73.10
27633;DHT22;15046;50.930;13.334;2023-02-28T17:20:13;3.70;73.40
27633;DHT22;15046;50.930;13.334;2023-02-28T17:22:39;3.60;73.40
27633;DHT22;15046;50.930;13.334;2023-02-28T17:25:05;3.50;73.60
27633;DHT22;15046;50.930;13.334;2023-02-28T17:27:31;3.40;73.80
27633;DHT22;15046;50.930;13.334;2023-02-28T17:29:56;3.40;74.00
27633;DHT22;15046;50.930;13.334;2023-02-28T17:32:22;3.30;74.30
27633;DHT22;15046;50.930;13.334;2023-02-28T17:34:49;3.20;74.50
27633;DHT22;15046;50.930;13.334;2023-02-28T17:37:15;3.10;74.50
27633;DHT22;15046;50.930;13.334;2023-02-28T17:39:43;3.00;74.40
27633;DHT22;15046;50.930;13.334;2023-02-28T17:42:09;3.00;74.40
27633;DHT22;15046;50.930;13.334;2023-02-28T17:44:35;2.90;74.50
27633;DHT22;15046;50.930;13.334;2023-02-28T17:47:00;2.90;74.70
27633;DHT22;15046;50.930;13.334;2023-02-28T17:49:26;2.80;74.80
27633;DHT22;15046;50.930;13.334;2023-02-28T17:51:52;2.80;75.00
27633;DHT22;15046;50.930;13.334;2023-02-28T17:54:18;2.70;75.20